Tiempo atmosférico en la estación meteorológica de Pollença Aeródromo, Illes Balears (2 m.)



Fecha
DESCASC
Temp. máxima en grados centígrados (hora)
DESCASC
Temp. mínima en grados centígrados (hora)
DESCASC
Temp. media en grados centígrados
DESCASC
Racha de viento máxima en m/sg (hora)
DESCASC
Velocidad máxima media en intervalos de 10 minutos(hora)
DESCASC
Precipitaciones diarias en mm
DESCASC
Precipitaciones de 00:00 a 06:00 en mm
DESCASC
Precipitaciones de 06:00 a 12:00 en mm
DESCASC
Precipitaciones de 12:00 a 18:00 en mm
DESCASC
Precipitaciones de 18:00 a 24:00 en mm
DESCASC

Gráficas

Temp. máximas Temp. mínimas Temp. medias Precipitaciones Rachas de viento máximas Velocidades máximas media en intervalos de 10 minutos

Datos horarios

Fecha y hora oficial Temperatura (ºC) Velocidad del viento (km/h) Dirección del viento Racha (km/h) Dirección de racha Precipitación (mm) Presión (hPa) Tendencia (hPa) Humedad (%)
2019-09-21 23:00:00 23.4 0 Calma 9 Nordeste 0 -- -- 92
2019-09-21 22:00:00 23.7 4 Norte 24 Norte 0 -- -- 92
2019-09-21 21:00:00 23.8 7 Nordeste 35 Norte 0 -- -- 92
2019-09-21 20:00:00 25 13 Norte 28 Norte 0 -- -- 89
2019-09-21 19:00:00 26.1 10 Noroeste 31 Norte 0 -- -- 82
2019-09-21 18:00:00 28 9 Noroeste 30 Norte 0 -- -- 68
2019-09-21 17:00:00 29.3 9 Norte 27 Norte 0 -- -- 65
2019-09-21 16:00:00 31.4 4 Sudeste 14 Este 0 -- -- 64
2019-09-21 15:00:00 31 8 Este 16 Sudeste 0 -- -- 67
2019-09-21 14:00:00 28.9 8 Sudeste 19 Sudeste 0 -- -- 74
2019-09-21 13:00:00 28.4 13 Sudeste 26 Sudeste 0 -- -- 79
2019-09-21 12:00:00 28.5 12 Sudeste 31 Este 0 -- -- 78
2019-09-21 11:00:00 26.7 13 Este 32 Sudeste 0 -- -- 85
2019-09-21 10:00:00 25.5 7 Sudeste 16 Sudoeste 0 -- -- 88
2019-09-21 09:00:00 24.4 15 Sudoeste 28 Sudoeste 0 -- -- 92
2019-09-21 08:00:00 23.7 9 Sudeste 13 Sudeste 0 -- -- 95
2019-09-21 07:00:00 24.3 6 Sur 22 Sudeste 0.2 -- -- 90
2019-09-21 06:00:00 24.6 10 Sudeste 37 Sudeste 0.2 -- -- 86
2019-09-21 05:00:00 24.9 15 Este 34 Sudeste 0 -- -- 84
2019-09-21 04:00:00 24.8 11 Sudeste 28 Sudeste 0 -- -- 87
2019-09-21 03:00:00 24.6 11 Sudeste 27 Este 0 -- -- 84
2019-09-21 02:00:00 24.4 12 Sudeste 27 Sudeste 0 -- -- 90
2019-09-21 01:00:00 24 8 Nordeste 22 Norte 0 -- -- 89
2019-09-21 00:00:00 24.1 9 Nordeste 25 Nordeste 0 -- -- 86
2019-09-20 23:00:00 24.3 5 Sudoeste 18 Sur 0 -- -- 85
2019-09-20 22:00:00 24.2 4 Sudoeste 23 Sudeste 0 -- -- 85
2019-09-20 21:00:00 24.4 10 Este 21 Este 0 -- -- 82
2019-09-20 20:00:00 24.7 6 Este 16 Este 0 -- -- 75
2019-09-20 19:00:00 24.9 8 Sudeste 22 Norte 0 -- -- 81
2019-09-20 18:00:00 25.5 12 Nordeste 28 Nordeste 0 -- -- 73
2019-09-20 17:00:00 26.5 8 Norte 27 Nordeste 0 -- -- 65
2019-09-20 16:00:00 27 8 Norte 28 Sudeste 0 -- -- 68
2019-09-20 15:00:00 27.2 11 Sudeste 28 Sur 0 -- -- 66
2019-09-20 14:00:00 27.6 6 Norte 26 Sudeste 0 -- -- 69
2019-09-20 13:00:00 27.4 10 Este 19 Sudeste 0 -- -- 68
2019-09-20 12:00:00 27.3 5 Nordeste 19 Este 0 -- -- 68
2019-09-20 11:00:00 26.7 8 Sudeste 21 Sudeste 0 -- -- 69
2019-09-20 10:00:00 25.9 9 Este 20 Sudeste 0 -- -- 73
2019-09-20 09:00:00 23.7 10 Sudeste 18 Sudeste 0 -- -- 85
2019-09-20 08:00:00 21.9 4 Nordeste 11 Norte 0 -- -- 91
2019-09-20 07:00:00 22.1 4 Norte 10 Norte 0 -- -- 91
2019-09-20 06:00:00 21.6 3 Nordeste 9 Nordeste 0 -- -- 95
2019-09-20 05:00:00 22 3 Nordeste 13 Este 0 -- -- 94
2019-09-20 04:00:00 22 6 Norte 15 Nordeste 0 -- -- 100
2019-09-20 03:00:00 20.5 3 Nordeste 4 Nordeste 0 -- -- 98
2019-09-20 02:00:00 20.5 0 Calma 3 Nordeste 0 -- -- 97
2019-09-20 01:00:00 20.8 2 Norte 3 Norte 0 -- -- 96
2019-09-20 00:00:00 21.1 2 Norte 6 Norte 0 -- -- 95
2019-09-19 23:00:00 21.6 3 Norte 5 Norte 0 -- -- 93
2019-09-19 22:00:00 22.6 0 Calma 8 Sudeste 0 -- -- 89
2019-09-19 21:00:00 23.6 2 Norte 9 Nordeste 0 -- -- 86
2019-09-19 20:00:00 24 4 Nordeste 19 Norte 0 -- -- 84
2019-09-19 19:00:00 24.9 5 Norte 19 Norte 0 -- -- 80
2019-09-19 18:00:00 26.3 6 Oeste 24 Nordeste 0 -- -- 74
2019-09-19 17:00:00 27.8 6 Nordeste 21 Este 0 -- -- 71
2019-09-19 16:00:00 27.9 9 Este 26 Nordeste 0 -- -- 69
2019-09-19 15:00:00 28 11 Este 26 Este 0 -- -- 70
2019-09-19 14:00:00 28.3 5 Norte 17 Este 0 -- -- 71
2019-09-19 13:00:00 28 9 Norte 16 Norte 0 -- -- 71
2019-09-19 12:00:00 25.1 7 Norte 14 Nordeste 0 -- -- 82
2019-09-19 11:00:00 26.5 7 Norte 15 Norte 0 -- -- 78
2019-09-19 10:00:00 25.3 2 Sur 5 Sur 0 -- -- 84
2019-09-19 09:00:00 21 0 Calma 3 Norte 0 -- -- 100
2019-09-19 08:00:00 19.2 0 Calma 3 Norte 0 -- -- 100
2019-09-19 07:00:00 19.1 0 Calma 3 Norte 0 -- -- 100
2019-09-19 06:00:00 19.3 0 Calma 3 Norte 0 -- -- 100
2019-09-19 05:00:00 19.5 2 Norte 4 Norte 0 -- -- 99
2019-09-19 04:00:00 19.8 0 Calma 3 Norte 0 -- -- 99
2019-09-19 03:00:00 19.8 0 Calma 5 Norte 0 -- -- 99
2019-09-19 02:00:00 19.9 2 Norte 6 Norte 0 -- -- 97
2019-09-19 01:00:00 20.3 0 Calma 4 Norte 0 -- -- 96
2019-09-19 00:00:00 21 0 Calma 4 Este 0 -- -- 94
2019-09-18 23:00:00 21.4 3 Nordeste 5 Norte 0 -- -- 92
2019-09-18 22:00:00 22 0 Calma 5 Este 0 -- -- 90
2019-09-18 21:00:00 22.9 0 Calma 9 Nordeste 0 -- -- 82
2019-09-18 20:00:00 24.2 4 Nordeste 17 Norte 0 -- -- 74
2019-09-18 19:00:00 25.3 9 Norte 22 Norte 0 -- -- 72
2019-09-18 18:00:00 27.2 13 Norte 25 Norte 0 -- -- 63
2019-09-18 17:00:00 28.9 6 Norte 22 Norte 0 -- -- 50
2019-09-18 16:00:00 28.6 8 Norte 21 Norte 0 -- -- 48
2019-09-18 15:00:00 28.9 8 Norte 23 Noroeste 0 -- -- 60
2019-09-18 14:00:00 28.6 10 Norte 20 Norte 0 -- -- 65
2019-09-18 13:00:00 28.6 7 Este 15 Este 0 -- -- 66
2019-09-18 12:00:00 28.5 9 Este 17 Sudeste 0 -- -- 67
2019-09-18 11:00:00 26.7 9 Nordeste 15 Nordeste 0 -- -- 70
2019-09-18 10:00:00 25.4 3 Sur 12 Este 0 -- -- 79
2019-09-18 09:00:00 22.2 3 Sudoeste 9 Sudoeste 0 -- -- 100
2019-09-18 08:00:00 20.3 2 Nordeste 6 Este 0 -- -- 97
2019-09-18 07:00:00 21 2 Este 7 Norte 0 -- -- 95
2019-09-18 06:00:00 21.9 4 Norte 8 Norte 0 -- -- 92
2019-09-18 05:00:00 22.2 0 Calma 12 Norte 0 -- -- 89
2019-09-18 04:00:00 23 3 Noroeste 15 Norte 0 -- -- 87
2019-09-18 03:00:00 23.4 4 Noroeste 14 Noroeste 0 -- -- 88
2019-09-18 02:00:00 23.8 5 Norte 15 Norte 0 -- -- 90
2019-09-18 01:00:00 23.4 3 Norte 7 Norte 0 -- -- 94
2019-09-18 00:00:00 23.4 2 Norte 4 Oeste 0 -- -- 93
2019-09-17 23:00:00 24 2 Norte 8 Este 0 -- -- 89
2019-09-17 22:00:00 24.8 3 Sudeste 8 Sudeste 0 -- -- 86
2019-09-17 21:00:00 24.7 4 Norte 9 Norte 0 -- -- 85
2019-09-15 18:00:00 -- -- -- -- -- -- -- -- --
2019-09-15 17:00:00 27.7 19 Este 29 Este 0 -- -- 78
2019-09-15 16:00:00 28.7 17 Este 28 Este 0 -- -- 73
2019-09-15 15:00:00 28.1 18 Sudeste 33 Sudeste 0 -- -- 78
2019-09-15 14:00:00 28.3 15 Este 30 Este 0 -- -- 78
2019-09-15 13:00:00 28.3 15 Este 45 Sudeste 0 -- -- 76
2019-09-15 12:00:00 27.6 21 Sudeste 41 Sudeste 0 -- -- 80
2019-09-15 11:00:00 27.3 17 Sur 33 Sudeste 0 -- -- 80
2019-09-15 10:00:00 26.4 19 Sudeste 33 Sudeste 0 -- -- 84
2019-09-15 09:00:00 24.9 8 Sur 21 Sudeste 0 -- -- 91
2019-09-15 08:00:00 24.6 5 Sudoeste 29 Sudeste 0 -- -- 91
2019-09-15 07:00:00 24.3 6 Sudoeste 20 Este 0 -- -- 92
2019-09-15 06:00:00 23.9 6 Nordeste 24 Este 0 -- -- 90
2019-09-15 05:00:00 24.1 11 Nordeste 27 Este 0 -- -- 87
2019-09-15 04:00:00 24.3 10 Norte 26 Norte 0 -- -- 89
2019-09-15 03:00:00 24.2 12 Norte 26 Nordeste 0 -- -- 88
2019-09-15 02:00:00 24.6 6 Sudoeste 18 Noroeste 0 -- -- 89
2019-09-15 01:00:00 24.4 5 Oeste 40 Sudeste 0 -- -- 89
2019-09-15 00:00:00 24.3 18 Sudeste 35 Sudeste 0 -- -- 89
2019-09-14 23:00:00 24.1 8 Sudoeste 32 Nordeste 0 -- -- 89
2019-09-14 22:00:00 24.1 9 Nordeste 32 Este 0 -- -- 88
2019-09-14 21:00:00 24.2 12 Nordeste 44 Este 0 -- -- 89
2019-09-14 20:00:00 24.7 8 Norte 20 Nordeste 0 -- -- 86
2019-09-14 19:00:00 25.3 5 Oeste 32 Nordeste 0 -- -- 82
2019-09-14 18:00:00 26.1 12 Nordeste 39 Nordeste 0 -- -- 82
2019-09-14 17:00:00 26.9 12 Noroeste 29 Norte 0 -- -- 77
2019-09-14 16:00:00 27.9 6 Sudoeste 21 Sudeste 0 -- -- 73
2019-09-14 15:00:00 27.2 7 Norte 29 Sudeste 0 -- -- 74
2019-09-14 14:00:00 27.5 11 Sudeste 29 Sudeste 0 -- -- 67
2019-09-14 13:00:00 27 10 Sur 33 Sudeste 0 -- -- 65
2019-09-14 12:00:00 26.8 14 Sudeste 28 Sudeste 0 -- -- 66
2019-09-14 11:00:00 26.1 14 Este 31 Sudeste 0 -- -- 74
2019-09-14 10:00:00 23.2 5 Norte 13 Norte 0 -- -- 77
2019-09-14 09:00:00 23 0 Calma 22 Norte 0 -- -- 85
2019-09-14 08:00:00 22.6 4 Norte 14 Nordeste 0 -- -- 83
2019-09-14 07:00:00 21 3 Nordeste 17 Nordeste 0 -- -- 89
2019-09-14 06:00:00 -- -- -- -- -- -- -- -- --
2019-09-14 05:00:00 22.5 8 Norte 41 Norte 0 -- -- 77
2019-09-14 04:00:00 22.6 16 Norte 35 Nordeste 0 -- -- 65
2019-09-14 03:00:00 21.8 14 Norte 30 Norte 0 -- -- 92
2019-09-14 02:00:00 21.3 10 Norte 29 Norte 2.6 -- -- 95
2019-09-14 01:00:00 22 11 Norte 23 Norte 1.2 -- -- 92
2019-09-14 00:00:00 22.8 9 Norte 20 Norte 0.6 -- -- 83
2019-09-13 23:00:00 23.7 8 Norte 22 Nordeste 0 -- -- 85
2019-09-13 22:00:00 23.9 4 Noroeste 24 Norte 0 -- -- 89
2019-09-13 21:00:00 24.1 8 Norte 30 Nordeste 0 -- -- 88
2019-09-13 20:00:00 24 9 Nordeste 32 Nordeste 0 -- -- 88
2019-09-13 19:00:00 24.5 10 Nordeste 30 Nordeste 0 -- -- 85
2019-09-13 18:00:00 25.2 13 Nordeste 31 Nordeste 0.2 -- -- 79
2019-09-13 17:00:00 25.1 8 Nordeste 24 Este 0.2 -- -- 83
2019-09-13 16:00:00 26.1 10 Nordeste 34 Norte 0.2 -- -- 74
2019-09-13 15:00:00 25.3 9 Nordeste 22 Nordeste 0 -- -- 78
2019-09-13 14:00:00 24.1 8 Nordeste 29 Norte 0 -- -- 86
2019-09-13 13:00:00 22.6 8 Norte 22 Nordeste 0.4 -- -- 95
2019-09-13 12:00:00 21.3 9 Norte 20 Norte 0.4 -- -- 88
2019-09-13 11:00:00 22.8 3 Noroeste 26 Nordeste 1.2 -- -- 95
2019-09-13 10:00:00 23.7 13 Nordeste 33 Nordeste 0 -- -- 86
2019-09-13 09:00:00 23.6 10 Nordeste 24 Nordeste 0 -- -- 81
2019-09-13 08:00:00 23 11 Nordeste 28 Nordeste 0 -- -- 87
2019-09-13 07:00:00 21.8 6 Norte 27 Este 0.2 -- -- 92
2019-09-13 06:00:00 22.1 4 Norte 33 Norte 1 -- -- 92
2019-09-13 05:00:00 23.2 11 Nordeste 26 Nordeste 0 -- -- 88
2019-09-13 04:00:00 23.3 5 Oeste 23 Nordeste 0 -- -- 89
2019-09-13 03:00:00 22.7 7 Nordeste 17 Norte 0 -- -- 90
2019-09-13 02:00:00 21.9 3 Nordeste 15 Nordeste 0 -- -- 91
2019-09-13 01:00:00 22.3 8 Norte 18 Nordeste 0 -- -- 90
2019-09-13 00:00:00 22.5 4 Norte 17 Norte 0 -- -- 85
2019-09-12 23:00:00 22.7 6 Nordeste 17 Nordeste 0 -- -- 82
2019-09-12 22:00:00 22.4 7 Nordeste 15 Nordeste 0 -- -- 79
2019-09-12 21:00:00 22.1 4 Norte 14 Este 0 -- -- 82
2019-09-12 20:00:00 23 8 Nordeste 25 Este 0 -- -- 77
2019-09-12 19:00:00 23.7 9 Nordeste 28 Nordeste 0 -- -- 72
2019-09-12 18:00:00 25.8 9 Nordeste 32 Norte 0 -- -- 61
2019-09-12 17:00:00 26 13 Nordeste 36 Nordeste 0 -- -- 59
2019-09-12 16:00:00 26.6 13 Nordeste 39 Norte 0 -- -- 55
2019-09-12 15:00:00 26.8 12 Nordeste 42 Este 0 -- -- 54
2019-09-12 14:00:00 27 14 Nordeste 37 Nordeste 0 -- -- 51
2019-09-12 13:00:00 27 14 Nordeste 32 Norte 0 -- -- 52
2019-09-12 12:00:00 26.5 9 Nordeste 44 Norte 0 -- -- 57
2019-09-12 11:00:00 26.3 14 Nordeste 35 Norte 0 -- -- 57
2019-09-12 10:00:00 24.1 15 Norte 42 Norte 0 -- -- 61
2019-09-12 09:00:00 23.6 10 Nordeste 41 Nordeste 0 -- -- 63
2019-09-12 08:00:00 23.6 18 Nordeste 42 Nordeste 0 -- -- 59
2019-09-12 07:00:00 23.4 12 Nordeste 35 Nordeste 0 -- -- 72
2019-09-12 06:00:00 23.5 12 Nordeste 34 Norte 0 -- -- 70
2019-09-12 05:00:00 23.4 11 Nordeste 37 Nordeste 0 -- -- 71
2019-09-12 04:00:00 23.5 11 Nordeste 33 Este 0 -- -- 71
2019-09-12 03:00:00 23.4 11 Norte 35 Nordeste 0 -- -- 68
2019-09-12 02:00:00 23.4 16 Nordeste 44 Nordeste 0 -- -- 73
2019-09-12 01:00:00 23.5 19 Nordeste 41 Nordeste 0 -- -- 73
2019-09-12 00:00:00 23.1 15 Nordeste 36 Este 0 -- -- 78
2019-09-11 23:00:00 23.2 15 Nordeste 38 Nordeste 0 -- -- 81
2019-09-11 22:00:00 23.5 12 Nordeste 34 Nordeste 0 -- -- 82
2019-09-11 21:00:00 23.4 9 Nordeste 36 Norte 0 -- -- 82
2019-09-11 20:00:00 23.4 11 Nordeste 33 Norte 0 -- -- 78
2019-09-11 19:00:00 23.9 8 Nordeste 29 Este 0 -- -- 71
2019-09-11 18:00:00 24.4 11 Nordeste 33 Este 0 -- -- 68
2019-09-11 17:00:00 25.4 13 Nordeste 31 Nordeste 0 -- -- 64
2019-09-11 16:00:00 26.5 9 Norte 32 Nordeste 0 -- -- 57
2019-09-11 15:00:00 26.7 11 Sudeste 26 Sudeste 0 -- -- 47
2019-09-11 14:00:00 25.3 10 Nordeste 28 Nordeste 0 -- -- 56
2019-09-11 13:00:00 25.5 7 Nordeste 21 Sudeste 0 -- -- 61
2019-09-11 12:00:00 24.9 7 Este 18 Norte 0 -- -- 60
2019-09-11 11:00:00 24.3 5 Nordeste 15 Sudeste 0 -- -- 62
2019-09-11 10:00:00 21.4 6 Sur 10 Sudoeste 0 -- -- 75
2019-09-11 09:00:00 17.3 0 Calma 4 Oeste 0 -- -- 97
2019-09-11 08:00:00 14.4 3 Norte 6 Sudoeste 0 -- -- 98
2019-09-11 07:00:00 14.8 2 Norte 9 Este 0 -- -- 94
2019-09-11 06:00:00 16.2 2 Norte 17 Sur 0 -- -- 87
2019-09-11 05:00:00 18 10 Sur 22 Sur 0 -- -- 82
2019-09-11 04:00:00 18.1 13 Sur 31 Sur 0 -- -- 81
2019-09-11 03:00:00 18.6 21 Sur 32 Sudoeste 0 -- -- 84
2019-09-11 02:00:00 19.3 4 Norte 39 Norte 0 -- -- 88
2019-09-11 01:00:00 19.3 19 Norte 53 Norte 0 -- -- 87
2019-09-11 00:00:00 18.4 24 Norte 55 Norte 0 -- -- 84
2019-09-10 23:00:00 18.3 30 Norte 69 Norte 0 -- -- 82
2019-09-10 22:00:00 18.1 29 Norte 65 Norte 0 -- -- 86
2019-09-10 21:00:00 16.2 20 Norte 58 Norte 2 -- -- 100
2019-09-10 20:00:00 14.7 11 Oeste 74 Oeste 36.2 -- -- 100
2019-09-10 19:00:00 17.5 23 Norte 51 Noroeste 7.4 -- -- 100
2019-09-10 18:00:00 18.1 21 Norte 53 Nordeste 5.2 -- -- 100
2019-09-10 17:00:00 18 24 Norte 60 Noroeste 19.8 -- -- 100
2019-09-10 16:00:00 19.7 18 Nordeste 49 Nordeste 1 -- -- 88
2019-09-10 15:00:00 23.5 17 Nordeste 40 Nordeste 0 -- -- 71
2019-09-10 14:00:00 23.4 17 Nordeste 41 Nordeste 0 -- -- 72
2019-09-10 13:00:00 23.3 21 Norte 51 Nordeste 0 -- -- 77
2019-09-10 12:00:00 25.3 7 Noroeste 19 Oeste 0 -- -- 76
2019-09-10 11:00:00 21.5 5 Este 25 Sur 2.4 -- -- 81
2019-09-10 10:00:00 25.3 4 Noroeste 25 Sur 0 -- -- 73
2019-09-10 09:00:00 24 17 Sur 23 Sur 0 -- -- 88
2019-09-10 08:00:00 23.7 15 Sudoeste 36 Sur 0 -- -- 86
2019-09-10 07:00:00 23.7 27 Sur 39 Sudoeste 0 -- -- 86
2019-09-10 06:00:00 23.3 26 Sur 44 Sur 0 -- -- 86
2019-09-10 05:00:00 23.6 31 Sur 49 Sudoeste 0 -- -- 85
2019-09-10 04:00:00 23.2 10 Sur 34 Sur 0 -- -- 84
2019-09-10 03:00:00 22.9 24 Sur 36 Sur 0 -- -- 96
2019-09-10 02:00:00 23 20 Sur 33 Sur 0 -- -- 82
2019-09-10 01:00:00 23.6 25 Sur 32 Sur 0 -- -- 80
2019-09-10 00:00:00 23.5 20 Sur 31 Sur 0 -- -- 77
2019-09-09 23:00:00 23.9 23 Sur 31 Sur 0 -- -- 76
2019-09-09 22:00:00 24.1 19 Sur 30 Sur 0 -- -- 75
2019-09-09 21:00:00 24.4 20 Sur 29 Sudoeste 0 -- -- 69
2019-09-09 20:00:00 25.3 21 Sudoeste 34 Sudoeste 0 -- -- 66
2019-09-09 19:00:00 26.4 25 Sur 39 Sudoeste 0 -- -- 61
2019-09-09 18:00:00 27.7 26 Sudoeste 35 Sudoeste 0 -- -- 58
2019-09-09 17:00:00 28.1 23 Sur 33 Sudoeste 0 -- -- 62
2019-09-09 16:00:00 27.8 17 Sur 27 Sudoeste 0 -- -- 59
2019-09-09 15:00:00 27.4 9 Nordeste 21 Norte 0 -- -- 59
2019-09-09 14:00:00 26.7 10 Norte 25 Nordeste 0 -- -- 56
2019-09-09 13:00:00 29.3 6 Sur 22 Sur 0 -- -- 50
2019-09-09 12:00:00 27.7 15 Sur 24 Sur 0 -- -- 56
2019-09-09 11:00:00 26.1 13 Sur 26 Sur 0 -- -- 63
2019-09-09 10:00:00 24.6 13 Sur 18 Sur 0 -- -- 69
2019-09-09 09:00:00 21.5 0 Calma 4 Sudeste 0 -- -- 76
2019-09-09 08:00:00 19.3 0 Calma 3 Sudoeste 0 -- -- 87
2019-09-09 07:00:00 19.7 2 Este 6 Este 0 -- -- 84
2019-09-09 06:00:00 19.1 0 Calma 6 Sudeste 0 -- -- 90
2019-09-09 05:00:00 18.4 2 Nordeste 5 Norte 0 -- -- 100
2019-09-09 04:00:00 17.2 2 Norte 3 Nordeste 0 -- -- 100
2019-09-09 03:00:00 16.7 0 Calma 5 Norte 0 -- -- 100
2019-09-09 02:00:00 17.8 3 Norte 4 Norte 0 -- -- 86
2019-09-09 01:00:00 18.1 2 Norte 4 Norte 0 -- -- 83
2019-09-09 00:00:00 19.1 2 Norte 4 Norte 0 -- -- 80
2019-09-08 23:00:00 20.5 3 Norte 7 Sur 0 -- -- 75
2019-09-08 22:00:00 21.4 0 Calma 6 Nordeste 0 -- -- 71
2019-09-08 21:00:00 21.9 3 Nordeste 8 Nordeste 0 -- -- 69
2019-09-08 20:00:00 23.7 4 Nordeste 13 Nordeste 0 -- -- 63
2019-09-08 19:00:00 24.7 6 Nordeste 18 Este 0 -- -- 60
2019-09-08 18:00:00 25.6 8 Nordeste 22 Norte 0 -- -- 58
2019-09-08 17:00:00 25.2 5 Norte 18 Norte 0 -- -- 61
2019-09-08 16:00:00 25.8 5 Norte 14 Norte 0 -- -- 61
2019-09-08 15:00:00 25.5 6 Este 22 Este 0 -- -- 54
2019-09-08 14:00:00 25.1 5 Este 22 Sudeste 0 -- -- 56
2019-09-08 13:00:00 25.6 9 Sudeste 21 Sur 0 -- -- 56
2019-09-08 12:00:00 26.5 7 Sudeste 13 Sudeste 0 -- -- 61
2019-09-08 11:00:00 23.3 9 Sur 13 Sur 0 -- -- 68
2019-09-08 10:00:00 22.5 0 Calma 10 Sur 0 -- -- 71
2019-09-08 09:00:00 19.9 0 Calma 5 Sur 0 -- -- 86
2019-09-08 08:00:00 16.4 0 Calma 5 Norte 0 -- -- 93
2019-09-08 07:00:00 15.8 0 Calma 4 Norte 0 -- -- 95
2019-09-08 06:00:00 16 0 Calma 5 Norte 0 -- -- 100
2019-09-08 05:00:00 15.9 3 Norte 5 Norte 0 -- -- 100
2019-09-08 04:00:00 15.4 2 Norte 4 Norte 0 -- -- 100
2019-09-08 03:00:00 15.4 0 Calma 4 Norte 0 -- -- 100
2019-09-08 02:00:00 17.6 2 Norte 4 Norte 0 -- -- 83
2019-09-08 01:00:00 18.2 2 Nordeste 4 Norte 0 -- -- 79
2019-09-08 00:00:00 19.3 3 Nordeste 9 Sudoeste 0 -- -- 77
2019-09-07 23:00:00 21.8 8 Sudoeste 15 Sudoeste 0 -- -- 73
2019-09-07 22:00:00 22.4 7 Sur 14 Sudeste 0 -- -- 73
2019-09-07 21:00:00 22.4 2 Este 12 Sudeste 0 -- -- 68
2019-09-07 20:00:00 23.1 5 Este 18 Este 0 -- -- 64
2019-09-07 19:00:00 24 7 Este 24 Sudeste 0 -- -- 61
2019-09-07 18:00:00 25.4 7 Sudeste 23 Norte 0 -- -- 57
2019-09-07 17:00:00 26 7 Este 22 Nordeste 0 -- -- 55
2019-09-07 16:00:00 26.5 5 Este 25 Este 0 -- -- 52
2019-09-07 15:00:00 26.1 12 Nordeste 30 Nordeste 0 -- -- 54
2019-09-07 14:00:00 26.4 7 Nordeste 25 Norte 0 -- -- 54
2019-09-07 13:00:00 26.4 8 Sudeste 20 Sudeste 0 -- -- 53
2019-09-07 12:00:00 26.4 9 Sudeste 18 Sudeste 0 -- -- 51
2019-09-07 11:00:00 23.7 5 Sur 9 Sur 0 -- -- 65
2019-09-07 10:00:00 22.3 3 Sudoeste 5 Sur 0 -- -- 68
2019-09-07 09:00:00 20.3 2 Nordeste 4 Nordeste 0 -- -- 78
2019-09-07 08:00:00 18.2 0 Calma 3 Norte 0 -- -- 86
2019-09-07 07:00:00 17.6 0 Calma 4 Este 0 -- -- 89
2019-09-07 06:00:00 16.2 0 Calma 4 Norte 0 -- -- 100
2019-09-07 05:00:00 15.8 0 Calma 4 Norte 0 -- -- 100
2019-09-07 04:00:00 15.4 2 Norte 4 Nordeste 0 -- -- 100
2019-09-07 03:00:00 15.4 3 Norte 4 Norte 0 -- -- 100
2019-09-07 02:00:00 18.3 2 Norte 3 Norte 0 -- -- 79
2019-09-07 01:00:00 19.7 0 Calma 6 Sur 0 -- -- 74
2019-09-07 00:00:00 22 7 Sudoeste 12 Sudeste 0 -- -- 70
2019-09-06 23:00:00 22.3 5 Sudeste 13 Sudeste 0 -- -- 69
2019-09-06 22:00:00 22.1 8 Sudeste 15 Sur 0 -- -- 70
2019-09-06 21:00:00 22.4 6 Este 14 Sudeste 0 -- -- 65
2019-09-06 20:00:00 22.6 3 Nordeste 16 Sudeste 0 -- -- 64
2019-09-06 19:00:00 23.5 6 Sudeste 22 Sudeste 0 -- -- 61
2019-09-06 18:00:00 23.9 10 Sudeste 21 Sudeste 0 -- -- 60
2019-09-06 17:00:00 25.1 8 Este 18 Sudeste 0 -- -- 56
2019-09-06 16:00:00 24.2 10 Este 25 Sudeste 0 -- -- 59
2019-09-06 15:00:00 24.4 5 Este 24 Sudeste 0 -- -- 60
2019-09-06 14:00:00 24.3 5 Norte 23 Sudeste 0 -- -- 59
2019-09-06 13:00:00 26.6 7 Nordeste 18 Norte 0 -- -- 54
2019-09-06 12:00:00 24.6 4 Este 14 Sudeste 0 -- -- 58
2019-09-06 11:00:00 23.6 4 Sudoeste 10 Sudoeste 0 -- -- 63
2019-09-06 10:00:00 22.2 2 Sudoeste 11 Este 0 -- -- 73
2019-09-06 09:00:00 22.2 3 Nordeste 16 Este 0 -- -- 64
2019-09-06 08:00:00 22.1 4 Nordeste 20 Este 0 -- -- 62
2019-09-06 07:00:00 22.2 5 Nordeste 18 Nordeste 0 -- -- 61
2019-09-06 06:00:00 22 6 Nordeste 18 Nordeste 0 -- -- 59
2019-09-06 05:00:00 21.8 7 Nordeste 22 Este 0 -- -- 58
2019-09-06 04:00:00 21.8 4 Nordeste 22 Nordeste 0 -- -- 60
2019-09-06 03:00:00 20.4 9 Nordeste 26 Este 0 -- -- 68
2019-09-06 02:00:00 22.7 9 Nordeste 29 Este 0 -- -- 55
2019-09-06 01:00:00 23.6 13 Nordeste 44 Norte 0 -- -- 50
2019-09-06 00:00:00 23.6 16 Nordeste 37 Nordeste 0 -- -- 52
2019-09-05 23:00:00 23.4 8 Nordeste 27 Nordeste 0 -- -- 56
2019-09-05 22:00:00 21.9 4 Norte 9 Norte 0 -- -- 81
2019-09-05 21:00:00 23.4 4 Sudeste 14 Nordeste 0.2 -- -- 72
2019-09-05 20:00:00 24.1 6 Nordeste 15 Sur 0 -- -- 65
2019-09-05 19:00:00 24.6 4 Sudoeste 27 Sudeste 0 -- -- 63
2019-09-05 18:00:00 24.6 9 Norte 27 Nordeste 0 -- -- 65
2019-09-05 17:00:00 24.8 10 Nordeste 34 Este 0 -- -- 66
2019-09-05 16:00:00 25.8 13 Nordeste 32 Nordeste 0 -- -- 59
2019-09-05 15:00:00 26.9 14 Nordeste 29 Este 0 -- -- 59
2019-09-05 14:00:00 28.1 12 Nordeste 24 Nordeste 0 -- -- 57
2019-09-05 13:00:00 29.1 9 Nordeste 28 Sudeste 0 -- -- 55
2019-09-05 12:00:00 28.3 6 Norte 28 Sur 0 -- -- 57
2019-09-05 11:00:00 29.2 6 Sudeste 12 Sudeste 0 -- -- 65
2019-09-05 10:00:00 25.5 4 Sur 6 Sur 0 -- -- 78
2019-09-05 09:00:00 22.4 0 Calma 3 Norte 0 -- -- 95
2019-09-05 08:00:00 19.5 0 Calma 4 Norte 0 -- -- 100
2019-09-05 07:00:00 19.5 3 Nordeste 5 Norte 0 -- -- 100
2019-09-05 06:00:00 20.5 0 Calma 8 Sur 0 -- -- 100
2019-09-05 05:00:00 20.7 5 Sur 10 Sudoeste 0 -- -- 100
2019-09-05 04:00:00 18.6 3 Norte 6 Norte 0 -- -- 100
2019-09-05 03:00:00 18.7 2 Norte 6 Norte 0 -- -- 100
2019-09-05 02:00:00 20.1 3 Norte 4 Norte 0 -- -- 90
2019-09-05 01:00:00 20.8 3 Norte 5 Norte 0 -- -- 88
2019-09-05 00:00:00 21.3 2 Norte 3 Nordeste 0 -- -- 86
2019-09-04 23:00:00 22.4 2 Noroeste 4 Oeste 0 -- -- 81
2019-09-04 22:00:00 23.6 0 Calma 9 Norte 0 -- -- 77
2019-09-04 21:00:00 24.6 4 Norte 14 Norte 0 -- -- 73
2019-09-04 20:00:00 25.6 4 Norte 17 Norte 0 -- -- 67
2019-09-04 19:00:00 27 5 Noroeste 18 Norte 0 -- -- 61
2019-09-04 18:00:00 28.3 7 Norte 24 Noroeste 0 -- -- 58
2019-09-04 17:00:00 29.3 9 Norte 27 Norte 0 -- -- 55
2019-09-04 16:00:00 28.9 11 Norte 27 Norte 0 -- -- 55
2019-09-04 15:00:00 28.2 12 Norte 26 Norte 0 -- -- 61
2019-09-04 14:00:00 29 11 Norte 22 Norte 0.2 -- -- 56
2019-09-04 13:00:00 29.2 10 Norte 19 Norte 0 -- -- 50
2019-09-04 12:00:00 29.1 8 Norte -- -- -- -- -- 50
2019-09-04 11:00:00 -- -- -- -- -- -- -- -- --
2019-09-04 10:00:00 -- -- -- -- -- -- -- -- --
2019-09-04 09:00:00 -- -- -- -- -- -- -- -- --
2019-09-04 08:00:00 -- -- -- -- -- -- -- -- --
2019-09-04 07:00:00 -- -- -- -- -- -- -- -- --
2019-09-04 06:00:00 -- -- -- -- -- -- -- -- --
2019-09-04 05:00:00 -- -- -- -- -- -- -- -- --
2019-09-04 04:00:00 -- -- -- -- -- -- -- -- --
2019-09-04 03:00:00 -- -- -- -- -- -- -- -- --
2019-09-04 02:00:00 -- -- -- -- -- -- -- -- --
2019-09-04 01:00:00 -- -- -- -- -- -- -- -- --
2019-09-04 00:00:00 -- -- -- -- -- -- -- -- --
2019-09-03 23:00:00 -- -- -- -- -- -- -- -- --
2019-09-03 22:00:00 -- -- -- -- -- -- -- -- --
2019-09-03 21:00:00 -- -- -- -- -- -- -- -- --
2019-09-03 20:00:00 -- -- -- -- -- -- -- -- --
2019-09-03 19:00:00 -- -- -- -- -- -- -- -- --
2019-09-03 18:00:00 -- -- -- -- -- -- -- -- --
2019-09-03 17:00:00 -- -- -- -- -- -- -- -- --
2019-09-03 16:00:00 -- -- -- -- -- -- -- -- --
2019-09-03 15:00:00 -- -- -- -- -- -- -- -- --
2019-09-03 14:00:00 -- -- -- -- -- -- -- -- --
2019-09-03 13:00:00 -- -- -- -- -- -- -- -- --
2019-09-03 12:00:00 -- -- -- -- -- -- -- -- --
2019-09-03 11:00:00 -- -- -- -- -- -- -- -- --
2019-09-03 10:00:00 -- -- -- -- -- -- -- -- --
2019-09-03 09:00:00 -- -- -- -- -- -- -- -- --
2019-09-03 08:00:00 -- -- -- -- -- -- -- -- --
2019-09-03 07:00:00 -- -- -- -- -- -- -- -- --
2019-09-03 06:00:00 -- -- -- -- -- -- -- -- --
2019-09-03 05:00:00 -- -- -- -- -- -- -- -- --
2019-09-03 04:00:00 -- -- -- -- -- -- -- -- --
2019-09-03 03:00:00 -- -- -- -- -- -- -- -- --
2019-09-03 02:00:00 -- -- -- -- -- -- -- -- --
2019-09-03 01:00:00 -- -- -- -- -- -- -- -- --
2019-09-03 00:00:00 -- -- -- -- -- -- -- -- --
2019-09-02 23:00:00 -- -- -- -- -- -- -- -- --
2019-09-02 22:00:00 -- -- -- -- -- -- -- -- --
2019-09-02 21:00:00 -- -- -- -- -- -- -- -- --
2019-09-02 20:00:00 -- -- -- -- -- -- -- -- --
2019-09-02 19:00:00 -- -- -- -- -- -- -- -- --
2019-09-02 18:00:00 -- -- -- -- -- -- -- -- --
2019-09-02 17:00:00 -- -- -- -- -- -- -- -- --
2019-09-02 16:00:00 -- -- -- -- -- -- -- -- --
2019-09-02 15:00:00 -- -- -- -- -- -- -- -- --
2019-09-02 14:00:00 -- -- -- -- -- -- -- -- --
2019-09-02 13:00:00 -- -- -- -- -- -- -- -- --
2019-09-02 12:00:00 -- -- -- -- -- -- -- -- --
2019-09-02 11:00:00 -- -- -- -- -- -- -- -- --
2019-09-02 10:00:00 -- -- -- -- -- -- -- -- --
2019-09-02 09:00:00 -- -- -- -- -- -- -- -- --
2019-09-02 08:00:00 -- -- -- -- -- -- -- -- --
2019-09-02 07:00:00 -- -- -- -- -- -- -- -- --
2019-09-02 06:00:00 -- -- -- -- -- -- -- -- --
2019-09-02 05:00:00 -- -- -- -- -- -- -- -- --
2019-09-02 04:00:00 -- -- -- -- -- -- -- -- --
2019-09-02 03:00:00 -- -- -- -- -- -- -- -- --
2019-09-02 02:00:00 -- -- -- -- -- -- -- -- --
2019-09-02 01:00:00 23.9 3 Nordeste 5 Norte 0 -- -- 86
2019-09-02 00:00:00 24.9 2 Norte 12 Este 0 -- -- 83
2019-09-01 23:00:00 25.1 5 Norte 13 Noroeste 0 -- -- 85
2019-09-01 22:00:00 25.3 0 Calma 13 Norte 0 -- -- 83
2019-09-01 21:00:00 25.7 5 Nordeste 10 Nordeste 0 -- -- 79
2019-09-01 20:00:00 26.5 4 Nordeste 10 Este 0 -- -- 80
2019-09-01 19:00:00 27.2 5 Norte 20 Norte 0 -- -- 76
2019-09-01 18:00:00 29.2 9 Norte 18 Norte 0 -- -- 68
2019-09-01 17:00:00 28.9 8 Norte 22 Norte 0 -- -- 66
2019-09-01 16:00:00 28.5 12 Norte 24 Norte 0 -- -- 66
2019-09-01 15:00:00 30 10 Norte 26 Norte 0 -- -- 67
2019-09-01 14:00:00 30.5 6 Norte 20 Nordeste 0 -- -- 69
2019-09-01 13:00:00 28.3 7 Noroeste 30 Norte 0 -- -- 72
2019-09-01 12:00:00 28.9 14 Norte 33 Norte 0 -- -- 73
2019-09-01 11:00:00 28.7 10 Norte 24 Norte 0 -- -- 71
2019-09-01 10:00:00 27.5 7 Noroeste 18 Nordeste 0 -- -- 75
2019-09-01 09:00:00 25.3 5 Sudoeste 17 Este 0 -- -- 82
2019-09-01 08:00:00 22.9 3 Sur 11 Sur 0 -- -- 91
2019-09-01 07:00:00 22 3 Sudeste 8 Sudeste 0 -- -- 96
2019-09-01 06:00:00 20.5 2 Sudeste 5 Sudeste 0 -- -- 100
2019-09-01 05:00:00 21 2 Norte 6 Sudoeste 0 -- -- 100
2019-09-01 04:00:00 21 0 Calma 13 Noroeste 0 -- -- 100
2019-09-01 03:00:00 19.6 2 Norte 5 Este 0 -- -- 100
2019-09-01 02:00:00 22.1 2 Norte 4 Norte 0 -- -- 88
2019-09-01 01:00:00 23.2 0 Calma 6 Norte 0 -- -- 85
2019-09-01 00:00:00 24.5 0 Calma 4 Norte 0 -- -- 82
2019-08-31 23:00:00 25.9 0 Calma 17 Norte 0 -- -- 77
2019-08-31 22:00:00 26.3 3 Norte 18 Norte 0 -- -- 74
2019-08-31 21:00:00 26.6 4 Norte 15 Norte 0 -- -- 69
2019-08-31 20:00:00 27.4 5 Norte 19 Norte 0 -- -- 65
2019-08-31 19:00:00 28.5 7 Norte 25 Norte 0 -- -- 61
2019-08-31 18:00:00 30.9 6 Noroeste 18 Norte 0 -- -- 52
2019-08-31 17:00:00 31.1 8 Norte 23 Noroeste 0 -- -- 54
2019-08-31 16:00:00 31.1 10 Norte 29 Norte 0 -- -- 54
2019-08-31 15:00:00 31.1 12 Norte 25 Norte 0 -- -- 57
2019-08-31 14:00:00 31.4 8 Norte 24 Norte 0 -- -- 52
2019-08-31 13:00:00 31.7 6 Este 16 Sur 0 -- -- 54
2019-08-31 12:00:00 32.4 7 Sur 12 Sur 0 -- -- 54
2019-08-31 11:00:00 30.6 5 Sudeste 8 Sur 0 -- -- 63
2019-08-31 10:00:00 26.8 3 Sur 6 Sur 0 -- -- 77
2019-08-31 09:00:00 24.1 0 Calma 3 Norte 0 -- -- 93
2019-08-31 08:00:00 21.3 2 Norte 5 Norte 0 -- -- 100
2019-08-31 07:00:00 21.5 2 Nordeste 5 Sudeste 0 -- -- 100
2019-08-31 06:00:00 22.3 4 Sudoeste 9 Sur 0 -- -- 100
2019-08-31 05:00:00 22.9 6 Sudeste 11 Sudeste 0 -- -- 100
2019-08-31 04:00:00 22.2 0 Calma 15 Nordeste 0 -- -- 100
2019-08-31 03:00:00 22.4 0 Calma 5 Norte 0 -- -- 100
2019-08-31 02:00:00 24 0 Calma 5 Sudoeste 0 -- -- 91
2019-08-31 01:00:00 24.7 0 Calma 9 Norte 0 -- -- 89
2019-08-31 00:00:00 25.1 3 Norte 10 Norte 0 -- -- 86
2019-08-30 23:00:00 25.2 6 Norte 13 Norte 0 -- -- 87
2019-08-30 22:00:00 25 4 Norte 8 Norte 0 -- -- 84
2019-08-30 21:00:00 25.9 6 Norte 15 Nordeste 0 -- -- 83
2019-08-30 20:00:00 26.9 9 Norte 19 Nordeste 0 -- -- 77
2019-08-30 19:00:00 28.5 10 Norte 22 Norte 0 -- -- 69
2019-08-30 18:00:00 30.1 10 Norte 23 Norte 0 -- -- 63
2019-08-30 17:00:00 31.7 4 Oeste 16 Norte 0 -- -- 54
2019-08-30 16:00:00 31.8 4 Norte 22 Noroeste 0 -- -- 51
2019-08-30 15:00:00 31 6 Noroeste 20 Norte 0 -- -- 53
2019-08-30 14:00:00 31.4 9 Noroeste 24 Noroeste 0 -- -- 47
2019-08-30 13:00:00 31.1 9 Noroeste 24 Norte 0 -- -- 47
2019-08-30 12:00:00 30.1 8 Norte 21 Noroeste 0 -- -- 53
2019-08-30 11:00:00 29.7 4 Noroeste 12 Sudoeste 0 -- -- 59
2019-08-30 10:00:00 27.3 3 Sur 6 Sudoeste 0 -- -- 74
2019-08-30 09:00:00 24.5 4 Sur 9 Sudeste 0 -- -- 82
2019-08-30 08:00:00 22.6 6 Sur 11 Sur 0 -- -- 97
2019-08-30 07:00:00 21.9 0 Calma 4 Norte 0 -- -- 99
2019-08-30 06:00:00 22.6 0 Calma 11 Sudoeste 0 -- -- 100
2019-08-30 05:00:00 23.5 2 Norte 11 Oeste 0 -- -- 100
2019-08-30 04:00:00 22.3 3 Nordeste 8 Sur 0 -- -- 100
2019-08-30 03:00:00 21.6 2 Norte 10 Sudoeste 0 -- -- 100
2019-08-30 02:00:00 23.6 0 Calma 6 Oeste 0 -- -- 93
2019-08-30 01:00:00 23.2 0 Calma 6 Sur 0 -- -- 91
2019-08-30 00:00:00 22.8 0 Calma 5 Norte 0 -- -- 88
2019-08-29 23:00:00 22.6 4 Norte 6 Norte 0 -- -- 86
2019-08-29 22:00:00 23.3 0 Calma 4 Norte 0 -- -- 82
2019-08-29 21:00:00 24.9 0 Calma 6 Norte 0 -- -- 77
2019-08-29 20:00:00 26.6 0 Calma 15 Norte 0 -- -- 70
2019-08-29 19:00:00 28.4 8 Norte 17 Norte 0 -- -- 67
2019-08-29 18:00:00 28 8 Norte 17 Noroeste 0 -- -- 70
2019-08-29 17:00:00 30.1 8 Norte 25 Norte 0 -- -- 59
2019-08-29 16:00:00 28.6 9 Norte 22 Norte 0 -- -- 66
2019-08-29 15:00:00 29.5 8 Noroeste 24 Norte 0 -- -- 61
2019-08-29 14:00:00 30.1 7 Noroeste 22 Norte 0 -- -- 59
2019-08-29 13:00:00 29.3 5 Noroeste 19 Norte 0 -- -- 61
2019-08-29 12:00:00 28.4 6 Noroeste 23 Oeste 0 -- -- 68
2019-08-29 11:00:00 27.4 5 Noroeste 25 Noroeste 0 -- -- 73
2019-08-29 10:00:00 27.1 5 Noroeste 20 Norte 0 -- -- 75
2019-08-29 09:00:00 25.8 4 Noroeste 15 Noroeste 0 -- -- 79
2019-08-29 08:00:00 24.1 6 Noroeste 13 Norte 0 -- -- 85
2019-08-29 07:00:00 23.9 4 Noroeste 19 Norte 0 -- -- 84
2019-08-29 06:00:00 23.9 6 Noroeste 16 Oeste 0 -- -- 84
2019-08-29 05:00:00 23.9 6 Norte 21 Noroeste 0 -- -- 85
2019-08-29 04:00:00 23.3 5 Noroeste 17 Norte 0 -- -- 100
2019-08-29 03:00:00 22.5 6 Noroeste 18 Norte 0 -- -- 100
2019-08-29 02:00:00 24.1 5 Norte 19 Noroeste 0 -- -- 85
2019-08-29 01:00:00 23.2 3 Norte 11 Norte 0 -- -- 90
2019-08-29 00:00:00 23.4 3 Norte 9 Norte 0 -- -- 89
2019-08-28 23:00:00 24.1 3 Norte 16 Norte 0 -- -- 85
2019-08-28 22:00:00 24.5 6 Norte 19 Noroeste 0 -- -- 84
2019-08-28 21:00:00 24.6 4 Norte 17 Norte 0 -- -- 83
2019-08-28 20:00:00 25 6 Norte 17 Norte 0 -- -- 80
2019-08-28 19:00:00 25.5 5 Norte 22 Norte 0 -- -- 80
2019-08-28 18:00:00 25.9 7 Norte 24 Norte 0 -- -- 75
2019-08-28 17:00:00 26.9 9 Noroeste 24 Norte 0 -- -- 71
2019-08-28 16:00:00 26.7 9 Norte 31 Norte 0 -- -- 75
2019-08-28 15:00:00 28.1 10 Norte 31 Norte 0 -- -- 67
2019-08-28 14:00:00 28.3 12 Norte 27 Norte 0 -- -- 67
2019-08-28 13:00:00 27.8 10 Norte 27 Norte 0 -- -- 68
2019-08-28 12:00:00 27.8 11 Norte 31 Norte 0 -- -- 69
2019-08-28 11:00:00 26.4 9 Norte 24 Norte 0 -- -- 72
2019-08-28 10:00:00 26.4 8 Norte 23 Norte 0 -- -- 73
2019-08-28 09:00:00 25.2 6 Norte 16 Norte 0 -- -- 75
2019-08-28 08:00:00 23.7 5 Norte 19 Norte 0 -- -- 85
2019-08-28 07:00:00 23.4 5 Norte 21 Norte 0 -- -- 94
2019-08-28 06:00:00 22.7 7 Norte 19 Norte 0 -- -- 100
2019-08-28 05:00:00 21.6 3 Norte 13 Nordeste 0 -- -- 100
2019-08-28 04:00:00 21.2 3 Norte 9 Norte 0 -- -- 100
2019-08-28 03:00:00 21 2 Noroeste 5 Nordeste 0 -- -- 100
2019-08-28 02:00:00 21.6 0 Calma 5 Nordeste 0 -- -- 98
2019-08-28 01:00:00 22.1 2 Norte 6 Este 0 -- -- 96
2019-08-28 00:00:00 22.8 3 Nordeste 10 Norte 0 -- -- 94
2019-08-27 23:00:00 22.8 4 Norte 12 Norte 0 -- -- 94
2019-08-27 22:00:00 22.8 0 Calma 5 Nordeste 0 -- -- 94
2019-08-27 21:00:00 23.9 2 Norte 4 Norte 0 -- -- 89
2019-08-27 20:00:00 25.2 0 Calma 21 Sudeste 0 -- -- 81
2019-08-27 19:00:00 25.8 6 Sudoeste 24 Norte 0 -- -- 74
2019-08-27 18:00:00 26.9 4 Noroeste 23 Norte 0 -- -- 67
2019-08-27 17:00:00 24 3 Nordeste 10 Este 0 -- -- 87
2019-08-27 16:00:00 21.2 2 Norte 34 Norte 0.2 -- -- 98
2019-08-27 15:00:00 20.5 18 Norte 38 Norte 7.8 -- -- 99
2019-08-27 14:00:00 22.6 6 Oeste 21 Oeste 0.4 -- -- 90
2019-08-27 13:00:00 23.7 6 Norte 14 Norte 0.6 -- -- 98
2019-08-27 12:00:00 24.6 3 Norte 11 Sudoeste 1.4 -- -- 99
2019-08-27 11:00:00 25.2 7 Sudoeste 16 Este 0.6 -- -- 92
2019-08-27 10:00:00 25.5 11 Este 19 Este 0 -- -- 87
2019-08-27 09:00:00 25.2 9 Sudoeste 21 Sudeste 0 -- -- 88
2019-08-27 08:00:00 24.4 8 Sur 19 Sudeste 0.2 -- -- 92
2019-08-27 07:00:00 24.2 0 Calma 8 Sudoeste 0 -- -- 84
2019-08-27 06:00:00 23.9 4 Norte 12 Nordeste 0 -- -- 84
2019-08-27 05:00:00 22.6 3 Norte 5 Norte 0 -- -- 100
2019-08-27 04:00:00 23.1 2 Noroeste 10 Sudoeste 0 -- -- 100
2019-08-27 03:00:00 21.6 2 Norte 12 Oeste 0 -- -- 100
2019-08-27 02:00:00 24 2 Norte 13 Sudoeste 0 -- -- 85
2019-08-27 01:00:00 24.8 10 Sudoeste 17 Sudoeste 0 -- -- 86
2019-08-27 00:00:00 25 10 Sur 22 Sudeste 0 -- -- 81
2019-08-26 23:00:00 25.5 7 Sudeste 21 Sudeste 0 -- -- 78
2019-08-26 22:00:00 25.4 8 Sudeste 18 Sudeste 0 -- -- 76
2019-08-26 21:00:00 25.5 5 Noroeste 23 Norte 0 -- -- 74
2019-08-26 20:00:00 26.2 9 Nordeste 24 Nordeste 0 -- -- 73
2019-08-26 19:00:00 27.8 5 Norte 21 Norte 0 -- -- 67
2019-08-26 18:00:00 28.9 5 Norte 20 Norte 0 -- -- 65
2019-08-26 17:00:00 29.9 6 Noroeste 25 Nordeste 0 -- -- 58
2019-08-26 16:00:00 29.7 6 Norte 25 Sudeste 0 -- -- 62
2019-08-26 15:00:00 30.1 8 Este 26 Sudeste 0 -- -- 58
2019-08-26 14:00:00 29.8 9 Sudeste 23 Sudeste 0 -- -- 63
2019-08-26 13:00:00 29.8 8 Sudeste 19 Sudeste 0 -- -- 62
2019-08-26 12:00:00 29.6 5 Sudeste 13 Este 0 -- -- 61
2019-08-26 11:00:00 28.6 6 Sudeste 13 Sudeste 0 -- -- 74
2019-08-26 10:00:00 26.3 4 Sur 6 Sudoeste 0 -- -- 81
2019-08-26 09:00:00 23.2 0 Calma 4 Norte 0 -- -- 100
2019-08-26 08:00:00 20.2 0 Calma 4 Sudoeste 0 -- -- 100
2019-08-26 07:00:00 19.9 0 Calma 4 Nordeste 0 -- -- 100
2019-08-26 06:00:00 20.1 3 Norte 6 Norte 0 -- -- 100
2019-08-26 05:00:00 20 4 Norte 4 Norte 0 -- -- 100
2019-08-26 04:00:00 20.1 0 Calma 4 Norte 0 -- -- 100
2019-08-26 03:00:00 20.6 0 Calma 4 Norte 0 -- -- 100
2019-08-26 02:00:00 22.1 0 Calma 2 Nordeste 0 -- -- 92
2019-08-26 01:00:00 22.8 0 Calma 4 Sudoeste 0 -- -- 88
2019-08-26 00:00:00 24.4 0 Calma 10 Sur 0 -- -- 83
2019-08-25 23:00:00 25.1 2 Este 8 Este 0 -- -- 83
2019-08-25 22:00:00 25.4 3 Nordeste 15 Nordeste 0 -- -- 81
2019-08-25 21:00:00 25.8 7 Este 22 Este 0 -- -- 76
2019-08-25 20:00:00 26.6 8 Nordeste 21 Nordeste 0 -- -- 70
2019-08-25 19:00:00 28.1 6 Nordeste 20 Este 0 -- -- 64
2019-08-25 18:00:00 28.9 7 Sudeste 21 Sur 0 -- -- 63
2019-08-25 17:00:00 29.3 9 Este 23 Sudeste 0 -- -- 62
2019-08-25 16:00:00 30.1 8 Este 25 Sudeste 0 -- -- 63
2019-08-25 15:00:00 30.7 6 Sudeste 15 Norte 0 -- -- 65
2019-08-25 14:00:00 31.3 5 Sudeste 19 Noroeste 0 -- -- 61
2019-08-25 13:00:00 29.7 7 Norte 18 Nordeste 0 -- -- 64
2019-08-25 12:00:00 29.8 6 Este 17 Este 0 -- -- 69
2019-08-25 11:00:00 28.8 6 Sur 10 Sudeste 0 -- -- 75
2019-08-25 10:00:00 25.7 5 Sur 6 Sur 0 -- -- 84
2019-08-25 09:00:00 22.6 4 Sur 8 Sur 0 -- -- 100
2019-08-25 08:00:00 20.3 4 Sudeste 6 Sudeste 0 -- -- --
2019-08-25 07:00:00 19.4 0 Calma 4 Norte 0 -- -- 100
2019-08-25 06:00:00 19.5 0 Calma 3 Norte 0 -- -- 100
2019-08-25 05:00:00 19.8 0 Calma 4 Norte 0 -- -- 100
2019-08-25 04:00:00 19.9 0 Calma -- -- 0 -- -- 100
2019-08-25 03:00:00 20.2 0 Calma 4 Nordeste 0 -- -- 100
2019-08-25 02:00:00 21.7 0 Calma 4 Norte 0 -- -- 93
2019-08-25 01:00:00 22.4 2 Norte 4 Norte 0 -- -- 91
2019-08-25 00:00:00 23.1 0 Calma 6 Sur 0 -- -- 89
2019-08-24 23:00:00 24.9 3 Sur 9 Este 0 -- -- 88
2019-08-24 22:00:00 25.3 6 Este 14 Este 0 -- -- 84
2019-08-24 21:00:00 25.4 8 Nordeste 19 Este 0 -- -- 82
2019-08-24 20:00:00 26 9 Nordeste 24 Nordeste 0 -- -- 78
2019-08-24 19:00:00 27.7 8 Nordeste 26 Norte 0 -- -- 69
2019-08-24 18:00:00 29.5 7 Nordeste 22 Nordeste 0 -- -- 53
2019-08-24 17:00:00 29.7 7 Este 19 Nordeste 0 -- -- 61
2019-08-24 16:00:00 29.6 8 Nordeste 25 Sudeste 0 -- -- 61
2019-08-24 15:00:00 29.6 8 Sudeste 21 Sudeste 0 -- -- 61
2019-08-24 14:00:00 29.2 13 Sudeste 28 Sudeste 0 -- -- 63
2019-08-24 13:00:00 30.1 8 Nordeste 22 Este 0 -- -- 63
2019-08-24 12:00:00 29.3 9 Sudeste 18 Sudeste 0 -- -- 66
2019-08-24 11:00:00 28.3 7 Este 16 Nordeste 0 -- -- 69
2019-08-24 10:00:00 25.8 6 Norte 14 Norte 0 -- -- 79
2019-08-24 09:00:00 24.3 5 Norte 10 Norte 0 -- -- 100
2019-08-24 08:00:00 21.9 3 Norte 6 Norte 0 -- -- 100
2019-08-24 07:00:00 21.6 4 Norte 7 Norte 0 -- -- 100
2019-08-24 06:00:00 21 3 Norte 7 Norte 0 -- -- 100
2019-08-24 05:00:00 20.7 2 Norte 4 Norte 0 -- -- 100
2019-08-24 04:00:00 20.8 0 Calma 6 Nordeste 0 -- -- 100
2019-08-24 03:00:00 20.7 0 Calma 4 Norte 0 -- -- 100
2019-08-24 02:00:00 21.8 2 Norte 4 Norte 0 -- -- 91
2019-08-24 01:00:00 22.6 0 Calma 3 Norte 0 -- -- 88
2019-08-24 00:00:00 24 0 Calma 9 Nordeste 0 -- -- 85
2019-08-23 23:00:00 24.3 4 Nordeste 9 Este 0 -- -- 84
2019-08-23 22:00:00 24.7 4 Este 15 Este 0 -- -- 81
2019-08-23 21:00:00 25 8 Nordeste 16 Nordeste 0 -- -- 79
2019-08-23 20:00:00 25.9 9 Este 20 Este 0 -- -- 76
2019-08-23 19:00:00 27.6 7 Nordeste 24 Norte 0 -- -- 71
2019-08-23 18:00:00 28.4 8 Norte 21 Nordeste 0 -- -- 68
2019-08-23 17:00:00 28.4 12 Norte 25 Nordeste 0 -- -- 69
2019-08-23 16:00:00 28.2 11 Norte 24 Norte 0 -- -- 69
2019-08-23 15:00:00 29.6 6 Norte 21 Norte 0 -- -- 65
2019-08-23 14:00:00 27 9 Norte 22 Norte 0 -- -- 74
2019-08-23 13:00:00 27.5 6 Nordeste 19 Nordeste 0 -- -- 68
2019-08-23 12:00:00 28.8 8 Norte 20 Norte 0 -- -- 63
2019-08-23 11:00:00 28.1 9 Nordeste 15 Norte 0 -- -- 59
2019-08-23 10:00:00 27.6 6 Norte 19 Nordeste 0 -- -- 60
2019-08-23 09:00:00 25.5 10 Norte 31 Norte 0 -- -- 74
2019-08-23 08:00:00 24.8 12 Norte 33 Norte 0 -- -- 70
2019-08-23 07:00:00 24.5 13 Norte 29 Norte 0 -- -- 77
2019-08-23 06:00:00 23.5 10 Norte 22 Norte 0 -- -- 77
2019-08-23 05:00:00 23.1 7 Norte 15 Norte 0 -- -- 76
2019-08-23 04:00:00 23.2 6 Norte 21 Nordeste 0 -- -- 73
2019-08-23 03:00:00 21.2 8 Norte 22 Norte 0 -- -- 100
2019-08-23 02:00:00 23.5 8 Norte 20 Norte 0 -- -- 70
2019-08-23 01:00:00 23.9 4 Norte 18 Norte 0 -- -- 66
2019-08-23 00:00:00 23.8 9 Norte 19 Norte 0 -- -- 64